Time;durP1;ratioP1;P1;durP2;ratioP2;P2;SDS_P1;SDS_P2;PMS_P1;PMS_P2;Temp;Humidity;BMP_temperature;BMP_pressure;BME280_temperature;BME280_humidity;BME280_pressure;Samples;Min_cycle;Max_cycle;Signal;HPM_P1;HPM_P2
2020/12/27 00:00:40;;;;;;;16.80;10.00;;;;;;;4.63;61.23;100416.91;2403100;79;25775;-85
2020/12/27 00:04:10;;;;;;;20.50;10.20;;;;;;;4.61;61.24;100411.65;2406264;81;25374;-81
2020/12/27 00:07:34;;;;;;;14.00;9.88;;;;;;;4.59;61.22;100407.22;2405135;81;25713;-88
2020/12/27 00:11:02;;;;;;;19.57;10.10;;;;;;;4.55;61.22;100399.73;2358440;82;25650;-80
2020/12/27 00:14:27;;;;;;;17.42;10.55;;;;;;;4.52;61.23;100403.86;2352224;83;25798;-81
2020/12/27 00:17:48;;;;;;;18.77;10.23;;;;;;;4.51;61.22;100404.27;2399580;81;25652;-90
2020/12/27 00:21:13;;;;;;;17.77;10.60;;;;;;;4.48;61.21;100403.72;2402970;81;25870;-90
2020/12/27 00:24:35;;;;;;;16.87;9.48;;;;;;;4.46;61.20;100403.19;2402933;81;25598;-88
2020/12/27 00:31:59;;;;;;;15.67;9.97;;;;;;;4.46;61.19;100401.89;2592828;76;25274;-92
2020/12/27 00:35:22;;;;;;;16.75;10.60;;;;;;;4.38;61.19;100396.75;2561772;77;25602;-89
2020/12/27 00:38:44;;;;;;;20.52;10.23;;;;;;;4.36;61.20;100396.69;2465640;79;25555;-89
2020/12/27 00:42:06;;;;;;;17.57;10.32;;;;;;;4.33;61.21;100405.98;2510166;78;25703;-87
2020/12/27 00:45:27;;;;;;;16.93;10.15;;;;;;;4.32;61.20;100404.19;2510302;78;25644;-87
2020/12/27 00:48:50;;;;;;;17.25;10.35;;;;;;;4.30;61.22;100392.52;2510236;78;25609;-90
2020/12/27 00:52:17;;;;;;;19.80;10.80;;;;;;;4.27;61.20;100382.05;2507877;78;25647;-90
2020/12/27 00:55:38;;;;;;;19.30;9.48;;;;;;;4.24;61.17;100387.92;2510274;78;25351;-91
2020/12/27 00:59:01;;;;;;;22.52;10.68;;;;;;;4.23;61.17;100391.74;2465693;78;25555;-92
2020/12/27 01:02:25;;;;;;;17.87;10.68;;;;;;;4.20;61.14;100400.62;2510198;78;25603;-91
2020/12/27 01:06:07;;;;;;;18.07;9.75;;;;;;;4.18;61.13;100400.52;2503367;78;25660;-81
2020/12/27 01:09:30;;;;;;;20.35;10.53;;;;;;;4.15;61.13;100393.95;2460601;80;25851;-81
2020/12/27 01:13:01;;;;;;;20.70;10.98;;;;;;;4.13;61.09;100389.11;2496431;78;25837;-81
2020/12/27 01:16:29;;;;;;;18.45;11.38;;;;;;;4.10;61.08;100377.34;2477177;79;25661;-89
2020/12/27 01:19:50;;;;;;;18.02;9.98;;;;;;;4.08;61.07;100366.05;2479058;78;25615;-84
2020/12/27 01:23:30;;;;;;;17.37;9.88;;;;;;;4.08;61.08;100362.59;2434529;80;25854;-88
2020/12/27 01:26:54;;;;;;;14.60;8.90;;;;;;;4.05;61.07;100355.61;2434306;79;25739;-84
2020/12/27 01:30:59;;;;;;;18.77;10.43;;;;;;;4.02;61.05;100352.47;2295527;82;25740;-89
2020/12/27 01:34:52;;;;;;;17.82;9.63;;;;;;;4.01;61.01;100353.66;2366054;82;25658;-81
2020/12/27 01:38:20;;;;;;;16.90;9.30;;;;;;;3.99;61.06;100347.56;2379329;82;25860;-82
2020/12/27 01:41:42;;;;;;;23.60;10.23;;;;;;;3.97;61.00;100346.18;2375919;82;25647;-89
2020/12/27 01:45:06;;;;;;;15.50;8.60;;;;;;;3.96;61.00;100349.58;2373412;82;25777;-89
2020/12/27 01:48:29;;;;;;;16.07;9.35;;;;;;;3.95;60.98;100334.92;2368505;82;25748;-89
2020/12/27 01:51:53;;;;;;;25.70;10.40;;;;;;;3.93;60.96;100339.11;2379211;82;25753;-85
2020/12/27 01:55:34;;;;;;;19.98;10.93;;;;;;;3.92;60.96;100332.60;2367991;82;25918;-88
2020/12/27 01:59:01;;;;;;;;;;;;;;;3.90;60.94;100335.09;2381493;82;25660;-90
2020/12/27 02:02:30;;;;;;;13.48;8.33;;;;;;;3.88;60.88;100323.83;2426702;79;25971;-91
2020/12/27 02:06:00;;;;;;;16.87;8.50;;;;;;;3.84;60.93;100323.17;2478330;78;26076;-91
2020/12/27 02:09:31;;;;;;;14.60;8.90;;;;;;;3.83;60.94;100314.97;2433673;81;25810;-90
2020/12/27 02:13:14;;;;;;;12.90;7.92;;;;;;;3.82;60.90;100311.04;2429065;80;26066;-90
2020/12/27 02:17:06;;;;;;;16.87;8.23;;;;;;;3.82;60.91;100309.34;2416695;81;25929;-90
2020/12/27 02:20:55;;;;;;;16.50;8.68;;;;;;;3.81;60.89;100305.37;2335852;83;25636;-81
2020/12/27 02:34:03;;;;;;;16.57;8.95;;;;;;;3.75;60.91;100300.83;2361083;83;25976;-86
2020/12/27 02:37:32;;;;;;;16.45;9.88;;;;;;;3.72;60.92;100291.64;2326631;83;26250;-83
2020/12/27 02:40:57;;;;;;;14.43;8.50;;;;;;;3.70;60.90;100290.27;2341501;83;25835;-89
2020/12/27 02:49:17;;;;;;;14.50;8.35;;;;;;;3.68;60.92;100278.09;2488270;78;25979;-81
2020/12/27 02:53:28;;;;;;;15.88;9.10;;;;;;;3.66;60.91;100266.44;2486430;78;25834;-81
2020/12/27 02:56:50;;;;;;;18.45;9.65;;;;;;;3.64;60.88;100265.47;2439994;79;25756;-91
2020/12/27 03:00:12;;;;;;;16.48;9.08;;;;;;;3.61;60.87;100256.70;2492449;78;25631;-92
2020/12/27 03:03:35;;;;;;;18.67;9.28;;;;;;;3.60;60.86;100244.22;2441528;80;25218;-92
2020/12/27 03:07:01;;;;;;;15.20;8.85;;;;;;;3.58;60.84;100235.55;2425244;81;25401;-92
2020/12/27 03:10:28;;;;;;;14.18;8.95;;;;;;;3.55;60.83;100243.13;2474498;78;25675;-91
2020/12/27 03:13:52;;;;;;;15.00;10.15;;;;;;;3.53;60.84;100241.73;2437921;80;25777;-92
2020/12/27 03:17:15;;;;;;;17.57;9.68;;;;;;;3.52;60.84;100237.81;2486680;78;25692;-92
2020/12/27 03:20:39;;;;;;;16.62;9.18;;;;;;;3.51;60.86;100246.33;2487060;78;25577;-92
2020/12/27 03:24:08;;;;;;;20.65;10.08;;;;;;;3.48;60.86;100242.34;2431355;80;26040;-91
2020/12/27 03:27:30;;;;;;;16.25;8.93;;;;;;;3.47;60.86;100241.44;2486576;78;26078;-90
2020/12/27 03:30:52;;;;;;;15.70;9.43;;;;;;;3.46;60.81;100241.38;2437914;79;25634;-90
2020/12/27 03:34:19;;;;;;;20.72;8.98;;;;;;;3.45;60.80;100249.92;2423984;81;25539;-91
2020/12/27 03:37:41;;;;;;;18.77;9.83;;;;;;;3.44;60.83;100249.41;2440416;80;25763;-89
2020/12/27 03:41:16;;;;;;;14.53;8.20;;;;;;;3.41;60.81;100245.02;2474426;79;25569;-88
2020/12/27 03:45:04;;;;;;;16.57;9.30;;;;;;;3.40;60.79;100244.92;2472035;79;25628;-90
2020/12/27 03:48:49;;;;;;;20.40;9.98;;;;;;;3.39;60.78;100241.47;2433253;81;25656;-90
2020/12/27 03:52:32;;;;;;;17.77;9.45;;;;;;;3.37;60.78;100248.63;2431015;80;25757;-86
2020/12/27 03:55:58;;;;;;;15.83;9.48;;;;;;;3.35;60.77;100242.55;2433160;79;26308;-89
2020/12/27 03:59:22;;;;;;;19.20;9.73;;;;;;;3.33;60.71;100243.73;2441589;78;25781;-81
2020/12/27 04:03:00;;;;;;;18.40;8.75;;;;;;;3.30;60.70;100238.02;2430308;80;25677;-82
2020/12/27 04:06:22;;;;;;;15.65;8.40;;;;;;;3.30;60.69;100233.27;2433224;80;26085;-83
2020/12/27 04:10:01;;;;;;;16.73;8.98;;;;;;;3.28;60.67;100227.17;2423355;80;25919;-81
2020/12/27 04:13:23;;;;;;;17.55;9.48;;;;;;;3.27;60.67;100232.73;2421284;80;26143;-92
2020/12/27 04:16:46;;;;;;;14.10;8.78;;;;;;;3.27;60.66;100230.53;2440631;79;25439;-88
2020/12/27 04:20:11;;;;;;;16.50;8.18;;;;;;;3.26;60.65;100225.80;2416218;81;25647;-91
2020/12/27 04:23:33;;;;;;;15.83;10.05;;;;;;;3.25;60.62;100218.88;2441449;80;25550;-91
2020/12/27 04:26:57;;;;;;;17.57;8.35;;;;;;;3.23;60.60;100217.91;2453264;80;25663;-91
2020/12/27 04:30:19;;;;;;;18.12;9.40;;;;;;;3.23;60.59;100205.44;2452621;80;25609;-91
2020/12/27 04:33:43;;;;;;;17.75;8.93;;;;;;;3.21;60.58;100191.62;2453291;80;25911;-91
2020/12/27 04:37:07;;;;;;;15.03;9.60;;;;;;;3.19;60.58;100186.78;2448262;80;25915;-91
2020/12/27 04:40:30;;;;;;;15.85;8.78;;;;;;;3.18;60.58;100192.75;2430855;80;25619;-91
2020/12/27 04:43:54;;;;;;;19.98;9.88;;;;;;;3.17;60.55;100184.52;2427648;81;25965;-91
2020/12/27 04:47:15;;;;;;;18.07;9.80;;;;;;;3.16;60.51;100182.76;2449516;77;25674;-89
2020/12/27 04:50:56;;;;;;;14.60;9.03;;;;;;;3.13;60.51;100178.33;2444718;80;25915;-87
2020/12/27 04:54:37;;;;;;;15.20;9.08;;;;;;;3.11;60.48;100179.97;2487680;79;25752;-91
2020/12/27 04:58:15;;;;;;;18.70;9.58;;;;;;;3.10;60.46;100182.45;2311662;84;25682;-91
2020/12/27 05:01:39;;;;;;;14.70;8.38;;;;;;;3.08;60.44;100183.27;2258774;86;25724;-91
2020/12/27 05:05:13;;;;;;;;;;;;;;;3.07;60.42;100187.03;2398752;82;25869;-91
2020/12/27 05:08:35;;;;;;;17.23;9.15;;;;;;;3.05;60.38;100175.79;2396533;82;25994;-90
2020/12/27 05:11:58;;;;;;;17.23;9.13;;;;;;;3.03;60.43;100173.53;2396222;82;25656;-92
2020/12/27 05:15:22;;;;;;;19.85;10.72;;;;;;;3.02;60.41;100180.78;2397108;82;25626;-89
2020/12/27 05:19:14;;;;;;;21.07;9.70;;;;;;;3.00;60.39;100190.11;2396954;82;25590;-92
2020/12/27 05:22:36;;;;;;;24.37;11.22;;;;;;;2.98;60.31;100190.45;2394329;82;25629;-91
2020/12/27 05:26:04;;;;;;;22.05;10.25;;;;;;;2.97;60.29;100198.59;2396370;82;25643;-91
2020/12/27 05:29:36;;;;;;;21.20;9.20;;;;;;;2.95;60.27;100198.91;2396100;82;25472;-91
2020/12/27 05:33:17;;;;;;;19.20;9.25;;;;;;;2.94;60.21;100191.11;2403877;79;25772;-91
2020/12/27 05:37:01;;;;;;;22.65;10.03;;;;;;;2.92;60.21;100183.30;2445495;79;25568;-91
2020/12/27 05:40:41;;;;;;;18.87;9.75;;;;;;;2.91;60.21;100178.95;2418096;81;25562;-89
2020/12/27 05:44:07;;;;;;;24.77;10.55;;;;;;;2.89;60.20;100181.84;2434906;81;25650;-91
2020/12/27 05:47:32;;;;;;;21.27;10.82;;;;;;;2.88;60.20;100174.94;2436450;81;25590;-92
2020/12/27 05:50:58;;;;;;;21.15;11.70;;;;;;;2.88;60.17;100185.23;2436261;80;25587;-91
2020/12/27 05:54:35;;;;;;;23.30;11.12;;;;;;;2.86;60.16;100176.95;2507534;78;25197;-90
2020/12/27 05:58:00;;;;;;;25.88;11.60;;;;;;;2.84;60.16;100175.19;2420209;80;25537;-91
2020/12/27 06:01:29;;;;;;;22.00;11.03;;;;;;;2.82;60.13;100159.17;2438466;80;25616;-88
2020/12/27 06:05:09;;;;;;;23.42;11.40;;;;;;;2.80;60.12;100161.69;2356669;83;25819;-89
2020/12/27 06:09:06;;;;;;;22.27;11.00;;;;;;;2.85;60.10;100160.62;2593875;76;25259;-90
2020/12/27 06:13:02;;;;;;;25.02;12.03;;;;;;;2.77;60.13;100153.80;2560206;77;25322;-90
2020/12/27 06:16:46;;;;;;;21.70;11.45;;;;;;;2.76;60.08;100151.13;2557145;77;25623;-90
2020/12/27 06:20:28;;;;;;;23.07;11.38;;;;;;;2.73;60.09;100153.14;2464744;79;25632;-90
2020/12/27 06:23:53;;;;;;;25.43;12.53;;;;;;;2.73;60.08;100148.40;2508890;78;25675;-91
2020/12/27 06:27:16;;;;;;;19.87;12.30;;;;;;;2.71;60.01;100163.78;2510101;78;25608;-90
2020/12/27 06:30:44;;;;;;;24.85;11.75;;;;;;;2.71;60.02;100155.18;2510288;78;25848;-89
2020/12/27 06:34:27;;;;;;;28.90;13.55;;;;;;;2.70;59.98;100145.66;2462993;78;25611;-91
2020/12/27 06:37:50;;;;;;;25.52;12.35;;;;;;;2.70;59.95;100154.30;2510462;78;25612;-88
2020/12/27 06:41:13;;;;;;;25.25;12.82;;;;;;;2.70;59.96;100147.87;2510137;78;25601;-91
2020/12/27 06:44:46;;;;;;;26.02;11.93;;;;;;;2.69;59.89;100153.80;2503984;78;25351;-91
2020/12/27 06:48:36;;;;;;;30.30;13.15;;;;;;;2.70;59.89;100154.67;2339408;83;25607;-91
2020/12/27 06:52:24;;;;;;;20.95;11.75;;;;;;;2.70;59.82;100150.81;2339154;84;25595;-91
2020/12/27 06:56:04;;;;;;;26.87;13.45;;;;;;;2.70;59.80;100146.95;2339195;84;25742;-86
2020/12/27 06:59:28;;;;;;;24.32;12.05;;;;;;;2.70;59.78;100154.67;2339327;84;25587;-88
2020/12/27 07:03:12;;;;;;;22.75;12.60;;;;;;;2.73;59.73;100144.53;2339395;84;25691;-91
2020/12/27 07:06:38;;;;;;;20.52;12.40;;;;;;;2.74;59.73;100143.34;2335145;82;25797;-92
2020/12/27 07:10:28;;;;;;;22.50;12.75;;;;;;;2.79;59.67;100128.13;2318630;85;25773;-91
2020/12/27 07:14:11;;;;;;;25.80;12.97;;;;;;;2.89;59.54;100135.50;2536835;76;35109;-92
2020/12/27 07:17:35;;;;;;;25.32;12.28;;;;;;;2.87;59.48;100133.27;2510587;78;25631;-91
2020/12/27 07:20:58;;;;;;;19.25;12.40;;;;;;;2.93;59.36;100131.39;2513350;78;25532;-90
2020/12/27 07:24:24;;;;;;;28.38;13.70;;;;;;;2.99;59.20;100134.27;2515596;78;25884;-92
2020/12/27 07:27:47;;;;;;;24.82;14.47;;;;;;;3.05;59.17;100130.72;2515912;78;25312;-89
2020/12/27 07:31:33;;;;;;;24.77;12.75;;;;;;;3.14;59.04;100130.27;2337829;84;25744;-94
2020/12/27 07:34:56;;;;;;;22.75;12.55;;;;;;;3.22;58.93;100119.95;2338765;84;25864;-91
2020/12/27 07:38:17;;;;;;;24.52;11.90;;;;;;;3.41;58.87;100121.70;2338684;84;25888;-91
2020/12/27 07:41:43;;;;;;;24.18;12.98;;;;;;;4.52;58.41;100116.91;2338577;83;25765;-91
2020/12/27 07:45:12;;;;;;;21.62;12.20;;;;;;;5.57;57.26;100118.22;2338756;84;25708;-93
2020/12/27 07:48:45;;;;;;;21.73;12.03;;;;;;;6.54;55.85;100109.80;2593797;76;25643;-92
2020/12/27 07:52:08;;;;;;;25.35;13.45;;;;;;;7.19;54.97;100114.16;2562061;77;25630;-93
2020/12/27 07:55:34;;;;;;;23.45;13.65;;;;;;;7.72;53.83;100126.25;2464838;80;25825;-90
2020/12/27 07:59:09;;;;;;;22.00;13.08;;;;;;;8.26;53.10;100132.63;2504193;78;25493;-92
2020/12/27 08:13:20;;;;;;;20.53;12.00;;;;;;;11.51;48.54;100103.42;2593773;76;29671;-91
2020/12/27 08:16:43;;;;;;;20.72;13.08;;;;;;;11.21;47.81;100103.81;2561719;77;25579;-90
2020/12/27 08:20:04;;;;;;;20.55;13.83;;;;;;;11.54;47.88;100099.55;2561750;77;25647;-91
2020/12/27 08:23:26;;;;;;;19.45;12.50;;;;;;;12.83;46.39;100085.94;2561796;77;25567;-91
2020/12/27 08:26:48;;;;;;;15.78;11.22;;;;;;;13.49;45.20;100074.27;2559342;77;25815;-92
2020/12/27 08:30:11;;;;;;;16.20;11.75;;;;;;;14.39;44.20;100080.42;2561343;77;25631;-91
2020/12/27 08:33:33;;;;;;;15.28;12.05;;;;;;;15.21;42.93;100053.87;2561019;77;25529;-91
2020/12/27 08:36:58;;;;;;;17.60;11.35;;;;;;;16.31;41.73;100074.66;2559322;77;25635;-93
2020/12/27 08:40:29;;;;;;;15.78;10.90;;;;;;;17.12;40.64;100079.88;2560024;75;25564;-92
2020/12/27 08:44:19;;;;;;;17.05;10.98;;;;;;;17.62;40.16;100081.20;2539901;77;25711;-83
2020/12/27 08:52:25;;;;;;;13.62;10.30;;;;;;;18.95;37.66;100077.36;2468841;78;26024;-94
2020/12/27 08:56:04;;;;;;;15.28;11.43;;;;;;;19.46;36.44;100079.58;2391869;81;25487;-83
2020/12/27 08:59:32;;;;;;;13.05;11.55;;;;;;;19.69;35.72;100076.56;2497073;79;25700;-84
2020/12/27 09:02:58;;;;;;;17.57;11.43;;;;;;;20.04;35.23;100064.41;2386660;81;25965;-94
2020/12/27 09:06:23;;;;;;;15.58;11.15;;;;;;;20.70;34.61;100065.23;2475687;79;25826;-92
2020/12/27 09:09:45;;;;;;;16.00;12.03;;;;;;;21.31;33.90;100065.98;2385604;82;25808;-92
2020/12/27 09:13:12;;;;;;;15.50;11.43;;;;;;;21.58;33.10;100056.00;2374950;82;25398;-93
2020/12/27 09:20:14;;;;;;;16.35;11.45;;;;;;;21.80;32.07;100048.34;2514782;77;25766;-92
2020/12/27 09:23:36;;;;;;;15.20;11.43;;;;;;;21.64;31.86;100046.55;2537352;77;25619;-92
2020/12/27 09:27:09;;;;;;;18.55;11.83;;;;;;;21.54;32.06;100038.44;2540573;77;25626;-93
2020/12/27 09:30:31;;;;;;;14.78;11.38;;;;;;;21.50;31.67;100026.17;2538807;77;25736;-91
2020/12/27 09:33:55;;;;;;;15.28;11.73;;;;;;;21.31;31.90;100019.11;2539430;77;25676;-93
2020/12/27 09:42:32;;;;;;;17.20;12.05;;;;;;;20.94;31.68;100003.28;2497408;77;26194;-90
2020/12/27 09:46:01;;;;;;;17.32;12.40;;;;;;;20.84;31.79;99988.52;2519608;77;25624;-92
2020/12/27 09:50:24;;;;;;;15.15;11.70;;;;;;;20.78;31.77;99993.97;2534989;77;25645;-91
2020/12/27 09:54:24;;;;;;;18.12;12.30;;;;;;;20.72;32.18;99979.98;2534169;77;25747;-89
2020/12/27 09:58:03;;;;;;;14.18;11.03;;;;;;;20.43;32.19;99981.95;2512160;77;26201;-90
2020/12/27 10:01:33;;;;;;;17.37;12.10;;;;;;;20.25;32.34;99979.28;2519308;77;25574;-89
2020/12/27 10:04:54;;;;;;;13.35;10.93;;;;;;;20.26;32.64;99974.40;2517003;77;26170;-90
2020/12/27 10:08:16;;;;;;;20.27;12.05;;;;;;;20.11;32.62;99971.20;2521754;77;26146;-87
2020/12/27 10:11:42;;;;;;;17.15;12.07;;;;;;;19.91;32.67;99964.60;2519993;77;26061;-91
2020/12/27 10:24:31;;;;;;;17.10;11.88;;;;;;;20.01;32.72;99940.11;2504323;77;26051;-83
2020/12/27 10:28:51;;;;;;;18.85;11.85;;;;;;;20.23;32.73;99939.19;2425170;77;26199;-82
2020/12/27 10:43:30;;;;;;;16.67;10.98;;;;;;;20.38;32.45;99901.75;2428277;80;28060;-89
2020/12/27 10:47:03;;;;;;;12.33;10.50;;;;;;;20.38;32.63;99911.02;2328202;83;25793;-88
2020/12/27 10:50:40;;;;;;;15.58;12.05;;;;;;;20.41;32.54;99894.19;2339051;83;26087;-87
2020/12/27 10:54:04;;;;;;;15.95;10.38;;;;;;;20.25;32.38;99893.26;2388335;80;25832;-89
2020/12/27 10:57:30;;;;;;;12.23;10.00;;;;;;;19.99;32.39;99867.39;2411543;80;25852;-87
2020/12/27 11:01:05;;;;;;;15.38;10.98;;;;;;;19.67;32.56;99853.56;2322921;82;25724;-89
2020/12/27 11:04:59;;;;;;;15.00;10.25;;;;;;;19.29;32.68;99841.14;2352165;80;25926;-89
2020/12/27 11:09:03;;;;;;;15.63;11.28;;;;;;;18.92;32.96;99833.08;2399288;80;25725;-88
2020/12/27 11:12:26;;;;;;;15.45;9.98;;;;;;;18.61;33.20;99839.77;2416388;80;25986;-88
2020/12/27 11:16:39;;;;;;;14.05;9.53;;;;;;;18.37;33.54;99832.28;2359145;80;26260;-88
2020/12/27 11:20:02;;;;;;;15.20;9.78;;;;;;;18.29;33.79;99828.46;2390732;80;26283;-88
2020/12/27 11:23:24;;;;;;;13.08;9.45;;;;;;;18.24;33.94;99825.47;2388981;81;25726;-91
2020/12/27 11:27:06;;;;;;;18.82;9.93;;;;;;;18.19;33.96;99820.27;2398453;81;26127;-91
2020/12/27 11:30:36;;;;;;;15.40;9.63;;;;;;;18.15;34.12;99801.41;2381137;81;25521;-90
2020/12/27 11:48:01;;;;;;;;;;;;;;;18.28;34.25;99763.38;2276243;80;25981;-87
2020/12/27 11:51:29;;;;;;;12.43;8.75;;;;;;;18.26;34.03;99762.97;2226857;86;25673;-88
2020/12/27 11:54:52;;;;;;;16.10;9.80;;;;;;;18.12;34.37;99750.02;2223555;87;25819;-86
2020/12/27 11:58:28;;;;;;;12.70;9.70;;;;;;;17.98;34.32;99744.98;2317528;84;25695;-84
2020/12/27 12:01:50;;;;;;;14.07;9.35;;;;;;;17.89;34.37;99741.20;2303549;84;25644;-88
2020/12/27 12:05:12;;;;;;;12.37;9.20;;;;;;;17.87;34.56;99733.30;2244305;85;25871;-86
2020/12/27 12:08:33;;;;;;;12.70;8.80;;;;;;;17.82;34.56;99717.13;2185950;88;25733;-85
2020/12/27 12:11:55;;;;;;;10.30;8.55;;;;;;;17.78;34.55;99711.48;2251131;85;25829;-84
2020/12/27 12:15:16;;;;;;;12.98;9.65;;;;;;;17.73;34.63;99708.91;2259412;85;25846;-86
2020/12/27 12:18:41;;;;;;;9.73;8.70;;;;;;;17.70;34.54;99700.59;2263887;85;25835;-86
2020/12/27 12:22:54;;;;;;;12.55;8.35;;;;;;;17.75;34.44;99683.81;2541323;75;31079;-85
2020/12/27 12:26:25;;;;;;;9.95;8.38;;;;;;;17.73;34.38;99665.86;2499908;78;25661;-83
2020/12/27 12:29:46;;;;;;;15.70;8.23;;;;;;;17.68;34.31;99664.59;2495430;78;25656;-86
2020/12/27 13:09:40;;;;;;;12.33;7.87;;;;;;;13.64;37.46;99613.41;2342781;82;26276;-83
2020/12/27 13:31:50;;;;;;;13.58;7.95;;;;;;;12.34;38.40;99559.58;2354015;82;25954;-85
2020/12/27 13:35:40;;;;;;;9.90;7.65;;;;;;;12.06;38.85;99552.09;2348150;79;25716;-89
2020/12/27 13:39:41;;;;;;;12.03;7.90;;;;;;;11.86;39.17;99564.17;2339828;82;26253;-88
2020/12/27 13:48:03;;;;;;;10.90;7.17;;;;;;;11.50;39.48;99553.91;2347576;82;26243;-83
2020/12/27 13:51:36;;;;;;;10.10;6.78;;;;;;;11.37;39.67;99557.30;2348329;82;25712;-83
2020/12/27 13:55:28;;;;;;;8.60;6.75;;;;;;;11.28;39.86;99552.47;2310273;81;25800;-83
2020/12/27 14:13:29;;;;;;;8.45;6.12;;;;;;;10.45;40.83;99543.45;2362836;78;26909;31
2020/12/27 16:08:13;;;;;;;9.40;6.17;;;;;;;6.66;46.05;99334.52;2382025;77;25502;31
2020/12/27 17:13:30;;;;;;;8.73;6.67;;;;;;;5.82;47.42;99263.93;2469567;77;26466;-85
2020/12/27 17:29:00;;;;;;;8.03;6.47;;;;;;;5.65;47.55;99244.98;2384338;80;34944;-80
2020/12/27 17:32:36;;;;;;;11.20;7.22;;;;;;;5.65;47.60;99251.45;2394351;80;26115;-80
2020/12/27 18:04:21;;;;;;;9.98;7.70;;;;;;;5.43;47.87;99143.17;2395194;80;26938;-87
2020/12/27 18:20:41;;;;;;;8.83;7.00;;;;;;;5.34;48.10;99116.72;2267884;80;35003;-82
2020/12/27 19:01:25;;;;;;;15.85;9.83;;;;;;;5.06;48.71;99070.36;2320847;80;25813;-87
2020/12/27 19:56:42;;;;;;;14.43;10.05;;;;;;;4.78;49.59;98983.61;2300333;83;25803;-86
2020/12/27 20:34:21;;;;;;;17.48;10.58;;;;;;;5.01;49.37;98938.55;2473584;77;25769;-83
2020/12/27 21:33:22;;;;;;;239.82;113.25;;;;;;;5.47;57.29;98879.20;2231306;84;26544;-87
2020/12/27 22:36:38;;;;;;;18.42;13.05;;;;;;;4.77;55.04;98789.13;2227749;86;26426;-82
2020/12/27 23:36:32;;;;;;;15.18;9.43;;;;;;;4.57;55.01;98703.53;2215300;86;25850;-88
2020/12/27 23:39:59;;;;;;;11.95;9.75;;;;;;;4.59;55.03;98686.78;2278256;85;26280;-83
2020/12/27 23:43:48;;;;;;;11.80;9.70;;;;;;;4.58;55.05;98699.24;2262985;85;26013;-87
2020/12/27 23:47:51;;;;;;;12.40;10.15;;;;;;;4.59;55.09;98694.52;2271188;84;25744;-81
2020/12/27 23:51:13;;;;;;;16.32;11.40;;;;;;;4.59;55.11;98688.06;2272710;85;25719;-85
2020/12/27 23:54:34;;;;;;;14.23;10.45;;;;;;;4.59;55.14;98686.39;2286201;85;25886;-89
2020/12/27 23:58:04;;;;;;;18.17;11.65;;;;;;;4.58;55.19;98679.45;2272268;85;26184;-81
